Time;durP1;ratioP1;P1;durP2;ratioP2;P2;SDS_P1;SDS_P2;PMS_P1;PMS_P2;Temp;Humidity;BMP_temperature;BMP_pressure;BME280_temperature;BME280_humidity;BME280_pressure;Samples;Min_cycle;Max_cycle;Signal;HPM_P1;HPM_P2
2021/04/17 00:01:20;;;;;;;8.87;5.17;;;5.10;93.00;;;;;;4344849;33;20175;-57
2021/04/17 00:03:47;;;;;;;12.93;5.70;;;5.10;93.00;;;;;;4345146;33;20216;-57
2021/04/17 00:06:13;;;;;;;9.80;4.63;;;5.10;92.90;;;;;;4338287;33;20228;-56
2021/04/17 00:08:40;;;;;;;9.30;5.10;;;5.10;93.20;;;;;;4345784;33;20221;-55
2021/04/17 00:11:07;;;;;;;12.40;5.20;;;5.10;93.30;;;;;;4344841;33;20238;-58
2021/04/17 00:13:34;;;;;;;8.63;4.53;;;5.00;93.20;;;;;;4343540;33;20179;-59
2021/04/17 00:16:00;;;;;;;13.63;4.87;;;5.00;93.30;;;;;;4340199;33;20220;-57
2021/04/17 00:18:27;;;;;;;10.23;4.57;;;5.00;93.20;;;;;;4351502;33;20642;-56
2021/04/17 00:20:53;;;;;;;8.93;4.60;;;4.90;93.20;;;;;;4348677;32;20180;-60
2021/04/17 00:23:19;;;;;;;8.13;4.23;;;4.90;93.20;;;;;;4344711;33;20178;-59
2021/04/17 00:25:46;;;;;;;9.23;4.47;;;4.90;93.10;;;;;;4343513;33;20257;-58
2021/04/17 00:28:13;;;;;;;9.70;4.67;;;4.90;93.30;;;;;;4345602;33;20229;-58
2021/04/17 00:30:42;;;;;;;12.10;4.20;;;4.80;93.30;;;;;;4344344;33;20220;-59
2021/04/17 00:33:09;;;;;;;10.97;4.60;;;4.80;93.30;;;;;;4344933;33;20239;-57
2021/04/17 00:35:35;;;;;;;6.63;4.07;;;4.80;93.30;;;;;;4343374;33;20220;-57
2021/04/17 00:38:02;;;;;;;11.27;4.37;;;4.80;93.50;;;;;;4344027;33;20181;-60
2021/04/17 00:40:28;;;;;;;8.37;4.70;;;4.80;93.20;;;;;;4344488;33;20340;-57
2021/04/17 00:42:54;;;;;;;6.50;3.87;;;4.70;93.50;;;;;;4344094;33;20300;-56
2021/04/17 00:45:21;;;;;;;8.97;4.40;;;4.70;93.50;;;;;;4343554;33;20196;-59
2021/04/17 00:47:48;;;;;;;9.70;4.07;;;4.70;93.60;;;;;;4342820;33;20169;-60
2021/04/17 00:50:14;;;;;;;8.80;4.50;;;4.70;93.50;;;;;;4344109;33;20259;-59
2021/04/17 00:52:41;;;;;;;9.57;4.30;;;4.60;93.70;;;;;;4345977;33;20172;-59
2021/04/17 00:55:08;;;;;;;8.50;4.00;;;4.60;93.70;;;;;;4344470;33;20207;-57
2021/04/17 00:57:34;;;;;;;10.67;4.83;;;4.60;93.80;;;;;;4343529;33;20208;-59
2021/04/17 01:00:01;;;;;;;6.50;4.13;;;4.60;93.80;;;;;;4345502;33;20630;-58
2021/04/17 01:02:33;;;;;;;9.87;4.10;;;4.60;93.90;;;;;;4344528;33;20306;-56
2021/04/17 01:05:01;;;;;;;9.43;5.10;;;4.50;94.00;;;;;;4347086;33;20471;-61
2021/04/17 01:07:32;;;;;;;7.93;4.47;;;4.50;94.00;;;;;;4341988;33;20533;-55
2021/04/17 01:10:07;;;;;;;6.70;3.83;;;4.50;94.10;;;;;;4344239;33;20168;-56
2021/04/17 01:12:34;;;;;;;9.67;4.40;;;4.40;94.10;;;;;;4345107;33;20179;-60
2021/04/17 01:15:04;;;;;;;9.07;4.10;;;4.40;94.20;;;;;;4345800;33;20517;-59
2021/04/17 01:17:32;;;;;;;7.53;4.07;;;4.40;94.30;;;;;;4339735;33;20171;-60
2021/04/17 01:20:06;;;;;;;11.37;4.23;;;4.40;94.30;;;;;;4343326;33;20198;-58
2021/04/17 01:22:34;;;;;;;6.87;3.80;;;4.30;94.40;;;;;;4339158;33;20168;-57
2021/04/17 01:25:08;;;;;;;12.17;4.87;;;4.30;94.40;;;;;;4346597;33;20199;-57
2021/04/17 01:27:36;;;;;;;11.77;4.57;;;4.30;94.70;;;;;;4335724;33;20493;-58
2021/04/17 01:30:07;;;;;;;7.40;4.27;;;4.20;94.70;;;;;;4342583;33;20231;-58
2021/04/17 01:32:34;;;;;;;8.47;4.20;;;4.20;95.00;;;;;;4345848;32;20160;-57
2021/04/17 01:35:01;;;;;;;8.80;4.30;;;4.20;95.10;;;;;;4347495;33;20181;-57
2021/04/17 01:38:04;;;;;;;14.37;4.33;;;4.10;94.90;;;;;;4347058;33;20259;-58
2021/04/17 01:40:34;;;;;;;6.63;3.80;;;4.10;95.10;;;;;;4346921;33;20152;-60
2021/04/17 01:43:01;;;;;;;9.73;4.23;;;4.10;95.10;;;;;;4346853;33;20531;-55
2021/04/17 01:45:30;;;;;;;8.67;4.70;;;4.10;95.00;;;;;;4347584;33;20165;-57
2021/04/17 01:47:58;;;;;;;7.40;3.63;;;4.00;95.30;;;;;;4341180;33;20267;-56
2021/04/17 01:50:26;;;;;;;6.17;3.87;;;4.00;95.30;;;;;;4348200;33;20215;-58
2021/04/17 01:52:54;;;;;;;8.87;3.90;;;4.00;95.30;;;;;;4341208;33;20236;-57
2021/04/17 01:55:22;;;;;;;9.43;4.20;;;4.00;95.50;;;;;;4347016;33;20227;-57
2021/04/17 01:57:50;;;;;;;9.33;3.73;;;4.00;95.50;;;;;;4347796;33;20208;-56
2021/04/17 02:00:19;;;;;;;12.13;4.23;;;4.00;95.50;;;;;;4344950;33;20270;-57
2021/04/17 02:02:46;;;;;;;8.13;3.93;;;4.00;95.50;;;;;;4341771;32;20172;-57
2021/04/17 02:05:13;;;;;;;9.87;3.73;;;3.90;95.70;;;;;;4345940;33;20209;-57
2021/04/17 02:07:39;;;;;;;7.10;3.70;;;3.90;95.50;;;;;;4347746;33;20201;-57
2021/04/17 02:10:07;;;;;;;9.67;3.63;;;3.90;95.80;;;;;;4346360;32;20252;-58
2021/04/17 02:12:34;;;;;;;5.90;3.73;;;3.90;95.90;;;;;;4344869;32;20201;-56
2021/04/17 02:15:02;;;;;;;7.83;3.80;;;3.90;96.00;;;;;;4347131;33;20230;-55
2021/04/17 02:17:39;;;;;;;6.87;3.33;;;3.90;96.00;;;;;;4346167;33;20216;-58
2021/04/17 02:20:10;;;;;;;9.70;4.40;;;3.90;96.00;;;;;;4348088;32;20246;-56
2021/04/17 02:22:37;;;;;;;7.80;3.83;;;3.80;96.20;;;;;;4344924;32;20641;-56
2021/04/17 02:25:05;;;;;;;8.53;3.93;;;3.80;96.20;;;;;;4347300;32;20201;-57
2021/04/17 02:27:32;;;;;;;10.00;3.60;;;3.80;96.20;;;;;;4346565;33;20609;-58
2021/04/17 02:29:59;;;;;;;6.67;4.13;;;3.80;96.20;;;;;;4346520;33;20454;-56
2021/04/17 02:32:26;;;;;;;8.23;4.00;;;3.80;96.50;;;;;;4347478;32;20204;-57
2021/04/17 02:34:54;;;;;;;6.83;3.97;;;3.80;96.60;;;;;;4345531;32;20207;-56
2021/04/17 02:37:20;;;;;;;14.23;4.40;;;3.80;96.60;;;;;;4345778;33;20193;-58
2021/04/17 02:39:47;;;;;;;6.17;3.97;;;3.70;96.80;;;;;;4346855;33;20219;-57
2021/04/17 02:42:14;;;;;;;8.90;3.77;;;3.70;96.90;;;;;;4345678;33;20211;-57
2021/04/17 02:44:41;;;;;;;8.03;4.27;;;3.70;97.00;;;;;;4339244;33;20232;-58
2021/04/17 02:47:08;;;;;;;6.93;3.47;;;3.70;96.90;;;;;;4346014;33;20183;-59
2021/04/17 02:49:34;;;;;;;11.07;4.10;;;3.60;96.80;;;;;;4346712;32;20157;-57
2021/04/17 02:52:02;;;;;;;8.27;4.07;;;3.60;97.10;;;;;;4345739;32;20212;-57
2021/04/17 02:54:28;;;;;;;11.20;4.67;;;3.60;96.80;;;;;;4342268;32;20227;-56
2021/04/17 02:56:54;;;;;;;8.57;3.70;;;3.60;96.90;;;;;;4336556;33;20181;-57
2021/04/17 02:59:21;;;;;;;8.80;3.80;;;3.60;97.00;;;;;;4345871;33;20209;-57
2021/04/17 03:01:47;;;;;;;7.33;3.73;;;3.60;97.40;;;;;;4345862;32;20219;-57
2021/04/17 03:04:14;;;;;;;8.60;4.03;;;3.50;97.10;;;;;;4342971;33;20217;-55
2021/04/17 03:06:40;;;;;;;6.50;3.87;;;3.50;97.40;;;;;;4345705;33;20521;-55
2021/04/17 03:09:08;;;;;;;9.73;4.47;;;3.50;97.40;;;;;;4344940;33;20263;-56
2021/04/17 03:11:34;;;;;;;8.90;4.60;;;3.50;97.60;;;;;;4345858;33;20306;-58
2021/04/17 03:14:00;;;;;;;6.13;3.67;;;3.50;97.40;;;;;;4344679;33;20219;-58
2021/04/17 03:16:27;;;;;;;8.17;4.37;;;3.40;97.40;;;;;;4345753;33;20254;-57
2021/04/17 03:18:53;;;;;;;5.80;4.33;;;3.40;97.30;;;;;;4342648;33;20212;-56
2021/04/17 03:21:19;;;;;;;8.13;4.40;;;3.40;97.30;;;;;;4345142;33;20200;-56
2021/04/17 03:23:46;;;;;;;8.07;4.00;;;3.40;97.30;;;;;;4344886;33;20217;-58
2021/04/17 03:26:13;;;;;;;10.97;4.63;;;3.40;97.30;;;;;;4342850;33;20216;-57
2021/04/17 03:28:39;;;;;;;7.53;4.23;;;3.40;97.50;;;;;;4345138;33;20185;-58
2021/04/17 03:31:05;;;;;;;9.27;4.43;;;3.40;97.70;;;;;;4345856;32;20646;-56
2021/04/17 03:33:32;;;;;;;7.77;4.23;;;3.40;97.80;;;;;;4344362;33;20157;-58
2021/04/17 03:35:58;;;;;;;10.20;4.57;;;3.40;98.10;;;;;;4340363;33;20217;-56
2021/04/17 03:38:24;;;;;;;9.83;3.83;;;3.40;97.70;;;;;;4345662;33;20225;-56
2021/04/17 03:40:51;;;;;;;9.23;3.67;;;3.30;97.90;;;;;;4345252;33;20203;-57
2021/04/17 03:43:18;;;;;;;7.93;4.30;;;3.30;97.90;;;;;;4345493;33;20197;-55
2021/04/17 03:45:44;;;;;;;5.27;3.73;;;3.30;98.10;;;;;;4338524;32;20249;-55
2021/04/17 03:48:11;;;;;;;12.60;4.30;;;3.30;98.30;;;;;;4342489;33;20169;-59
2021/04/17 03:50:38;;;;;;;6.07;3.50;;;3.20;98.30;;;;;;4345479;33;20180;-57
2021/04/17 03:53:04;;;;;;;8.87;4.30;;;3.20;98.30;;;;;;4344491;33;20161;-58
2021/04/17 03:55:31;;;;;;;8.50;4.07;;;3.20;98.50;;;;;;4343232;32;20217;-58
2021/04/17 03:57:57;;;;;;;8.67;4.33;;;3.20;98.30;;;;;;4345084;33;20645;-56
2021/04/17 04:00:25;;;;;;;10.63;4.40;;;3.20;98.70;;;;;;4344462;33;20187;-57
2021/04/17 04:02:51;;;;;;;8.13;4.10;;;3.20;98.80;;;;;;4344574;33;20168;-55
2021/04/17 04:05:18;;;;;;;8.10;4.33;;;3.20;98.80;;;;;;4346288;33;20179;-57
2021/04/17 04:07:45;;;;;;;10.63;4.23;;;3.20;98.90;;;;;;4349470;32;20244;-56
2021/04/17 04:10:13;;;;;;;7.90;4.03;;;3.20;98.60;;;;;;4344560;33;20212;-55
2021/04/17 04:12:40;;;;;;;8.43;4.33;;;3.20;98.40;;;;;;4344572;33;20261;-58
2021/04/17 04:15:10;;;;;;;12.20;4.37;;;3.10;98.50;;;;;;4343088;33;20305;-56
2021/04/17 04:17:38;;;;;;;6.77;4.33;;;3.10;99.00;;;;;;4342308;33;20216;-55
2021/04/17 04:20:06;;;;;;;11.80;4.80;;;3.00;99.00;;;;;;4344834;33;20185;-57
2021/04/17 04:22:33;;;;;;;9.70;4.53;;;3.10;99.20;;;;;;4345716;33;20196;-57
2021/04/17 04:24:59;;;;;;;14.33;4.53;;;3.10;99.20;;;;;;4344236;33;20211;-57
2021/04/17 04:27:26;;;;;;;7.60;4.33;;;3.20;99.30;;;;;;4343392;33;20475;-57
2021/04/17 04:29:52;;;;;;;11.40;5.67;;;3.10;99.40;;;;;;4344017;33;20221;-55
2021/04/17 04:32:18;;;;;;;8.50;5.00;;;3.10;99.90;;;;;;4344097;33;20154;-57
2021/04/17 04:34:46;;;;;;;7.87;4.77;;;3.10;99.90;;;;;;4344824;33;20213;-57
2021/04/17 04:37:12;;;;;;;9.93;5.07;;;3.10;99.90;;;;;;4343656;33;20183;-58
2021/04/17 04:39:38;;;;;;;7.83;4.43;;;3.10;99.90;;;;;;4344246;33;20264;-54
2021/04/17 04:42:05;;;;;;;7.00;4.57;;;3.10;99.90;;;;;;4344409;33;20185;-57
2021/04/17 04:44:31;;;;;;;11.97;5.23;;;3.10;99.90;;;;;;4345371;33;20153;-57
2021/04/17 04:46:57;;;;;;;10.93;5.20;;;3.20;99.90;;;;;;4340850;33;20620;-57
2021/04/17 04:49:24;;;;;;;12.03;5.10;;;3.20;99.90;;;;;;4344599;33;20161;-57
2021/04/17 04:51:51;;;;;;;10.00;5.70;;;3.20;99.90;;;;;;4344893;33;20216;-58
2021/04/17 04:54:17;;;;;;;11.10;6.40;;;3.20;99.90;;;;;;4345731;33;20311;-57
2021/04/17 04:56:44;;;;;;;10.20;7.00;;;3.20;99.90;;;;;;4342448;33;20203;-58
2021/04/17 04:59:10;;;;;;;13.47;6.67;;;3.20;99.90;;;;;;4345778;33;20482;-56
2021/04/17 05:01:36;;;;;;;13.80;7.77;;;3.20;99.90;;;;;;4345790;33;20236;-57
2021/04/17 05:04:03;;;;;;;12.77;6.00;;;3.30;99.90;;;;;;4346236;33;20204;-55
2021/04/17 05:06:29;;;;;;;16.93;6.30;;;3.40;99.90;;;;;;4347137;32;20564;-61
2021/04/17 05:08:56;;;;;;;12.20;6.07;;;3.40;99.80;;;;;;4347047;33;20259;-56
2021/04/17 05:11:22;;;;;;;13.00;6.70;;;3.50;99.80;;;;;;4346926;33;20217;-56
2021/04/17 05:13:49;;;;;;;13.33;6.70;;;3.60;99.70;;;;;;4347188;33;20177;-58
2021/04/17 05:16:15;;;;;;;14.83;6.40;;;3.90;99.70;;;;;;4347212;33;20515;-56
2021/04/17 05:18:42;;;;;;;11.67;6.50;;;4.20;99.20;;;;;;4347319;33;20187;-58
2021/04/17 05:21:08;;;;;;;13.53;6.27;;;4.50;98.70;;;;;;4346254;33;20223;-57
2021/04/17 05:23:34;;;;;;;12.60;6.37;;;4.60;98.20;;;;;;4346804;33;20223;-57
2021/04/17 05:26:01;;;;;;;12.30;6.20;;;4.70;98.00;;;;;;4346644;33;20212;-55
2021/04/17 05:28:28;;;;;;;12.30;6.13;;;4.70;98.30;;;;;;4345936;33;20633;-58
2021/04/17 05:30:54;;;;;;;12.13;6.87;;;4.70;98.20;;;;;;4345327;33;20185;-58
2021/04/17 05:33:20;;;;;;;15.47;6.20;;;4.90;98.40;;;;;;4347090;33;20209;-57
2021/04/17 05:35:47;;;;;;;14.90;6.87;;;5.10;98.00;;;;;;4348443;33;20294;-57
2021/04/17 05:38:13;;;;;;;10.73;6.43;;;5.10;97.80;;;;;;4342821;33;20165;-55
2021/04/17 05:40:42;;;;;;;11.23;6.53;;;5.20;98.20;;;;;;4347649;32;20593;-57
2021/04/17 05:43:09;;;;;;;11.67;6.10;;;5.20;98.40;;;;;;4346429;33;20625;-55
2021/04/17 05:45:35;;;;;;;12.30;5.97;;;5.70;98.40;;;;;;4346058;33;20169;-58
2021/04/17 05:48:01;;;;;;;14.27;5.83;;;7.90;96.60;;;;;;4345199;33;20221;-55
2021/04/17 05:50:28;;;;;;;9.57;5.40;;;10.30;91.90;;;;;;4346801;33;20204;-57
2021/04/17 05:52:54;;;;;;;9.17;4.77;;;11.70;85.90;;;;;;4346295;33;20209;-59
2021/04/17 05:55:21;;;;;;;11.47;5.10;;;12.30;80.90;;;;;;4346535;33;20210;-58
2021/04/17 05:57:47;;;;;;;9.03;4.97;;;12.00;80.10;;;;;;4345661;32;20830;-59
2021/04/17 06:00:15;;;;;;;10.80;5.43;;;10.90;83.20;;;;;;4346092;33;20170;-59
2021/04/17 06:02:41;;;;;;;12.83;5.00;;;9.70;86.70;;;;;;4345751;33;20185;-55
2021/04/17 06:05:09;;;;;;;12.23;5.60;;;8.90;90.00;;;;;;4346602;32;20219;-57
2021/04/17 06:07:35;;;;;;;10.50;5.43;;;8.30;91.40;;;;;;4343894;33;20205;-58
2021/04/17 06:10:01;;;;;;;13.63;5.93;;;7.70;92.90;;;;;;4345797;33;20217;-55
2021/04/17 06:12:27;;;;;;;11.80;5.33;;;7.40;93.70;;;;;;4345134;33;20584;-59
2021/04/17 06:14:54;;;;;;;12.30;5.80;;;7.30;94.30;;;;;;4346859;33;20157;-58
2021/04/17 06:17:21;;;;;;;10.40;5.33;;;7.10;95.10;;;;;;4345737;33;20233;-56
2021/04/17 06:19:47;;;;;;;11.00;5.07;;;7.10;95.20;;;;;;4345141;32;20201;-56
2021/04/17 06:22:13;;;;;;;11.10;5.50;;;7.20;95.20;;;;;;4345265;33;20177;-56
2021/04/17 06:24:40;;;;;;;10.37;4.90;;;7.30;95.20;;;;;;4347497;33;20219;-57
2021/04/17 06:27:07;;;;;;;12.43;4.47;;;7.30;95.40;;;;;;4346657;33;20176;-57
2021/04/17 06:29:33;;;;;;;11.10;5.17;;;7.40;95.40;;;;;;4342410;32;20244;-59
2021/04/17 06:31:59;;;;;;;8.17;4.30;;;7.50;95.10;;;;;;4345593;33;20470;-57
2021/04/17 06:34:26;;;;;;;6.17;3.80;;;7.60;95.00;;;;;;4345822;33;20181;-57
2021/04/17 06:36:52;;;;;;;12.07;4.27;;;7.60;95.00;;;;;;4343923;33;20156;-56
2021/04/17 06:39:19;;;;;;;14.07;4.60;;;7.70;95.00;;;;;;4346170;33;20259;-58
2021/04/17 06:41:48;;;;;;;8.40;3.00;;;7.90;94.80;;;;;;4345997;33;20229;-59
2021/04/17 06:44:16;;;;;;;9.67;4.70;;;8.00;94.40;;;;;;4344617;33;20267;-58
2021/04/17 06:46:43;;;;;;;12.07;3.67;;;7.90;94.30;;;;;;4346885;33;20248;-58
2021/04/17 06:49:09;;;;;;;7.00;3.23;;;8.10;94.10;;;;;;4346826;32;20176;-57
2021/04/17 06:51:38;;;;;;;9.97;3.90;;;8.00;94.20;;;;;;4346350;33;20160;-58
2021/04/17 06:54:06;;;;;;;7.97;3.10;;;8.10;94.20;;;;;;4345876;33;20498;-60
2021/04/17 06:56:32;;;;;;;6.47;3.60;;;8.20;94.00;;;;;;4334459;33;20768;-60
2021/04/17 06:58:59;;;;;;;9.07;3.00;;;8.30;93.80;;;;;;4341874;32;20204;-57
2021/04/17 07:01:29;;;;;;;8.50;2.80;;;8.40;93.40;;;;;;4345811;33;20175;-56
2021/04/17 07:03:58;;;;;;;6.17;2.93;;;8.40;92.90;;;;;;4345525;33;20230;-55
2021/04/17 07:06:24;;;;;;;7.70;2.70;;;8.60;92.50;;;;;;4345792;33;20176;-58
2021/04/17 07:08:52;;;;;;;7.57;2.43;;;8.70;92.40;;;;;;4346804;32;20232;-57
2021/04/17 07:11:18;;;;;;;7.60;2.40;;;8.80;91.00;;;;;;4345332;33;20149;-58
2021/04/17 07:14:10;;;;;;;3.20;2.00;;;8.80;90.50;;;;;;4345608;33;20585;-58
2021/04/17 07:16:59;;;;;;;5.87;2.13;;;8.90;89.00;;;;;;4343715;33;20213;-57
2021/04/17 07:19:44;;;;;;;4.80;1.73;;;9.00;88.30;;;;;;4343964;33;20221;-55
2021/04/17 07:22:16;;;;;;;6.90;1.50;;;9.20;87.50;;;;;;4344862;33;20173;-61
2021/04/17 07:24:43;;;;;;;3.07;1.50;;;9.50;85.70;;;;;;4344027;33;20168;-60
2021/04/17 07:27:10;;;;;;;6.57;1.73;;;9.80;83.80;;;;;;4344402;33;20156;-60
2021/04/17 07:29:44;;;;;;;2.87;1.60;;;10.00;81.60;;;;;;4344002;33;20280;-61
2021/04/17 07:32:18;;;;;;;7.63;2.50;;;10.20;80.50;;;;;;4345353;33;20473;-60
2021/04/17 07:35:04;;;;;;;6.13;1.70;;;10.80;79.40;;;;;;4344211;33;20168;-60
2021/04/17 07:37:31;;;;;;;5.70;1.63;;;13.10;74.70;;;;;;4344180;33;20184;-61
2021/04/17 07:40:16;;;;;;;2.53;1.20;;;16.80;61.90;;;;;;4343353;33;20208;-61
2021/04/17 07:42:44;;;;;;;4.87;1.63;;;20.20;46.80;;;;;;4345773;33;20220;-59
2021/04/17 07:45:20;;;;;;;3.90;1.23;;;23.80;40.50;;;;;;4344212;33;20176;-60
2021/04/17 07:47:46;;;;;;;4.90;1.27;;;28.40;34.40;;;;;;4344610;33;20160;-60
2021/04/17 07:50:14;;;;;;;5.90;1.80;;;30.90;30.90;;;;;;4342185;33;20161;-60
2021/04/17 07:52:40;;;;;;;4.30;1.30;;;33.00;29.60;;;;;;4345358;33;20203;-60
2021/04/17 07:55:09;;;;;;;3.23;1.40;;;33.30;28.80;;;;;;4344445;33;20604;-60
2021/04/17 07:57:37;;;;;;;4.10;1.43;;;33.00;28.50;;;;;;4344877;33;20206;-59
2021/04/17 08:00:07;;;;;;;4.20;1.60;;;34.40;27.10;;;;;;4343355;33;20515;-59
2021/04/17 08:02:35;;;;;;;3.90;1.33;;;29.70;28.20;;;;;;4343307;33;20196;-59
2021/04/17 08:05:03;;;;;;;2.93;1.20;;;31.90;28.80;;;;;;4343487;33;20175;-61
2021/04/17 08:07:30;;;;;;;5.27;1.67;;;33.30;27.90;;;;;;4343491;33;20204;-60
2021/04/17 08:09:59;;;;;;;5.43;1.47;;;34.50;27.50;;;;;;4344261;33;20173;-61
2021/04/17 08:12:26;;;;;;;3.37;1.20;;;29.70;28.80;;;;;;4342194;33;20172;-61
2021/04/17 08:14:54;;;;;;;3.67;1.30;;;29.90;27.90;;;;;;4341719;33;20267;-58
2021/04/17 08:17:21;;;;;;;4.03;1.70;;;30.20;29.00;;;;;;4343681;33;20236;-60
2021/04/17 08:19:47;;;;;;;4.13;1.40;;;33.00;27.60;;;;;;4344035;33;20219;-61
2021/04/17 08:22:15;;;;;;;4.43;1.40;;;34.80;27.00;;;;;;4341034;33;20523;-61
2021/04/17 08:24:42;;;;;;;3.60;1.37;;;35.40;26.30;;;;;;4343010;33;20184;-62
2021/04/17 08:27:09;;;;;;;4.35;1.12;;;36.30;26.40;;;;;;4343301;33;20276;-59
2021/04/17 08:29:44;;;;;;;4.10;1.48;;;36.80;25.90;;;;;;4343314;33;20242;-60
2021/04/17 08:32:31;;;;;;;2.67;1.50;;;35.70;25.90;;;;;;4342614;33;20183;-61
2021/04/17 08:35:09;;;;;;;2.73;1.30;;;34.70;26.40;;;;;;4343382;33;20180;-60
2021/04/17 08:38:03;;;;;;;3.58;1.60;;;35.00;26.20;;;;;;4346674;33;20458;-61
2021/04/17 08:40:50;;;;;;;3.72;1.48;;;35.20;26.00;;;;;;4346564;33;20188;-63
2021/04/17 08:43:31;;;;;;;4.82;1.60;;;35.30;26.30;;;;;;4345532;32;20153;-61
2021/04/17 08:46:12;;;;;;;4.45;1.75;;;34.90;26.40;;;;;;4346510;33;20188;-62
2021/04/17 08:48:49;;;;;;;5.77;1.40;;;34.20;26.00;;;;;;4347293;33;20629;-64
2021/04/17 08:51:34;;;;;;;5.97;1.70;;;35.10;25.90;;;;;;4346560;33;20230;-62
2021/04/17 08:54:23;;;;;;;3.87;1.20;;;32.20;26.60;;;;;;4347505;33;20176;-61
2021/04/17 08:56:58;;;;;;;9.57;1.20;;;34.00;26.30;;;;;;4348229;33;20184;-59
2021/04/17 08:59:28;;;;;;;3.70;1.27;;;35.00;25.90;;;;;;4338479;33;20206;-63
2021/04/17 09:01:57;;;;;;;2.33;1.20;;;33.90;25.70;;;;;;4347777;33;20664;-60
2021/04/17 09:04:23;;;;;;;6.47;1.50;;;31.60;26.30;;;;;;4343955;33;20644;-59
2021/04/17 09:06:52;;;;;;;1.83;1.20;;;32.60;27.20;;;;;;4344859;33;20212;-59
2021/04/17 09:09:34;;;;;;;6.27;1.50;;;32.10;26.90;;;;;;4342054;33;20717;-62
2021/04/17 09:12:20;;;;;;;2.70;1.40;;;27.90;28.60;;;;;;4346448;32;20279;-60
2021/04/17 09:15:04;;;;;;;4.87;1.40;;;22.40;30.80;;;;;;4346841;33;20631;-61
2021/04/17 09:17:46;;;;;;;3.03;1.13;;;18.00;35.20;;;;;;4346148;33;20175;-62
2021/04/17 09:20:14;;;;;;;3.13;1.17;;;16.20;40.00;;;;;;4344193;33;20222;-60
2021/04/17 09:22:48;;;;;;;4.07;1.40;;;15.00;41.50;;;;;;4340082;33;20168;-63
2021/04/17 09:25:31;;;;;;;3.07;1.40;;;14.60;41.80;;;;;;4347850;33;20574;-60
2021/04/17 09:27:57;;;;;;;5.57;1.20;;;14.20;45.20;;;;;;4346432;33;20389;-61
2021/04/17 09:30:24;;;;;;;5.17;1.57;;;14.20;46.10;;;;;;4346932;33;20216;-60
2021/04/17 09:32:55;;;;;;;3.30;1.47;;;13.70;47.20;;;;;;4346270;32;20225;-62
2021/04/17 09:35:24;;;;;;;6.20;1.50;;;13.30;47.40;;;;;;4347831;33;20540;-62
2021/04/17 09:38:01;;;;;;;5.03;1.40;;;13.10;49.20;;;;;;4346260;32;20191;-61
2021/04/17 09:40:32;;;;;;;6.60;2.00;;;13.00;52.20;;;;;;4344816;33;20637;-66
2021/04/17 09:42:59;;;;;;;6.37;1.93;;;12.90;54.40;;;;;;4345773;33;20161;-60
2021/04/17 09:45:34;;;;;;;5.83;2.33;;;12.70;56.60;;;;;;4345951;33;20186;-62
2021/04/17 09:48:03;;;;;;;9.23;1.93;;;12.50;55.90;;;;;;4346041;33;20267;-61
2021/04/17 09:50:31;;;;;;;6.37;1.83;;;12.60;57.00;;;;;;4345792;33;20212;-62
2021/04/17 09:53:13;;;;;;;4.10;1.97;;;12.70;57.00;;;;;;4346520;33;20365;-60
2021/04/17 09:55:48;;;;;;;5.30;2.37;;;12.40;57.80;;;;;;4345873;33;20183;-62
2021/04/17 09:58:22;;;;;;;3.67;1.90;;;12.30;59.30;;;;;;4346254;33;20160;-64
2021/04/17 10:00:49;;;;;;;6.53;2.50;;;12.40;56.40;;;;;;4344943;33;20164;-62
2021/04/17 10:03:29;;;;;;;6.10;2.30;;;12.60;56.40;;;;;;4347898;33;20289;-63
2021/04/17 10:05:56;;;;;;;5.53;2.53;;;12.90;59.40;;;;;;4345182;33;20180;-60
2021/04/17 10:08:27;;;;;;;8.90;2.20;;;13.00;57.20;;;;;;4344030;33;20191;-60
2021/04/17 10:10:54;;;;;;;4.70;1.90;;;13.00;56.00;;;;;;4345370;33;20213;-63
2021/04/17 10:13:39;;;;;;;6.93;2.53;;;12.60;56.60;;;;;;4345556;33;20283;-61
2021/04/17 10:16:06;;;;;;;7.30;2.60;;;12.70;55.70;;;;;;4346934;33;20258;-63
2021/04/17 10:18:34;;;;;;;8.37;2.70;;;12.70;57.30;;;;;;4338206;33;20195;-62
2021/04/17 10:21:00;;;;;;;20.30;2.80;;;12.70;58.10;;;;;;4345887;32;20199;-62
2021/04/17 10:23:27;;;;;;;6.03;2.30;;;13.00;58.30;;;;;;4345582;33;20172;-64
2021/04/17 10:25:53;;;;;;;5.47;1.97;;;12.90;55.90;;;;;;4341018;33;20577;-63
2021/04/17 10:28:23;;;;;;;6.33;2.80;;;13.00;57.40;;;;;;4344437;33;20184;-64
2021/04/17 10:30:52;;;;;;;4.73;2.50;;;13.00;57.40;;;;;;4339163;33;20200;-62
2021/04/17 10:33:20;;;;;;;8.13;2.47;;;13.10;57.00;;;;;;4343466;33;20221;-62
2021/04/17 10:35:49;;;;;;;6.90;2.00;;;13.10;57.50;;;;;;4344518;33;20153;-62
2021/04/17 10:38:27;;;;;;;7.53;2.63;;;13.10;58.40;;;;;;4345932;33;20249;-60
2021/04/17 10:40:57;;;;;;;5.83;2.50;;;13.00;56.10;;;;;;4341785;33;20198;-63
2021/04/17 10:43:24;;;;;;;6.23;2.43;;;12.80;56.80;;;;;;4344358;33;20195;-63
2021/04/17 10:45:55;;;;;;;4.77;2.30;;;12.70;58.30;;;;;;4344706;33;20653;-61
2021/04/17 10:48:25;;;;;;;3.77;2.00;;;12.90;58.10;;;;;;4345271;33;20153;-62
2021/04/17 10:51:01;;;;;;;5.23;2.70;;;13.10;57.10;;;;;;4344284;33;20153;-63
2021/04/17 10:53:29;;;;;;;8.93;2.90;;;13.10;57.20;;;;;;4340622;33;20156;-61
2021/04/17 10:55:57;;;;;;;7.63;2.40;;;13.10;57.80;;;;;;4338972;33;20228;-64
2021/04/17 10:58:27;;;;;;;6.83;2.43;;;13.10;56.90;;;;;;4345464;33;20251;-62
2021/04/17 11:00:56;;;;;;;9.27;2.30;;;12.90;57.80;;;;;;4339776;33;20160;-65
2021/04/17 11:03:24;;;;;;;4.73;2.33;;;12.90;58.40;;;;;;4341630;33;20173;-61
2021/04/17 11:05:51;;;;;;;3.90;2.00;;;13.40;56.60;;;;;;4346075;33;20166;-60
2021/04/17 11:08:26;;;;;;;6.80;2.33;;;13.50;54.10;;;;;;4338306;33;20648;-62
2021/04/17 11:10:53;;;;;;;5.67;2.80;;;13.40;55.80;;;;;;4344685;33;20145;-65
2021/04/17 11:13:31;;;;;;;8.17;2.90;;;13.00;55.20;;;;;;4344691;33;20243;-65
2021/04/17 11:15:58;;;;;;;8.50;2.70;;;13.20;56.40;;;;;;4345224;33;20216;-63
2021/04/17 11:18:24;;;;;;;6.70;2.93;;;13.20;58.00;;;;;;4344413;33;20536;-62
2021/04/17 11:20:56;;;;;;;5.37;2.80;;;13.00;59.30;;;;;;4343076;33;20480;-61
2021/04/17 11:23:37;;;;;;;7.73;3.57;;;13.20;57.90;;;;;;4339467;32;20173;-61
2021/04/17 11:26:05;;;;;;;6.60;2.63;;;13.40;56.20;;;;;;4341555;33;22190;-65
2021/04/17 11:28:34;;;;;;;5.50;2.27;;;13.70;56.00;;;;;;4340867;33;20179;-60
2021/04/17 11:31:01;;;;;;;8.97;3.00;;;13.90;57.40;;;;;;4342660;33;20228;-62
2021/04/17 11:33:28;;;;;;;5.17;2.43;;;13.50;56.50;;;;;;4345789;33;20141;-62
2021/04/17 11:35:57;;;;;;;7.17;2.93;;;13.90;56.10;;;;;;4347080;33;20580;-65
2021/04/17 11:38:24;;;;;;;6.47;2.50;;;13.70;56.20;;;;;;4343861;33;20195;-61
2021/04/17 11:40:51;;;;;;;6.27;2.83;;;13.70;57.50;;;;;;4344778;33;20148;-61
2021/04/17 11:43:17;;;;;;;5.70;2.83;;;14.20;55.50;;;;;;4345735;32;20216;-61
2021/04/17 11:45:45;;;;;;;6.93;2.80;;;14.10;54.70;;;;;;4343680;33;20220;-61
2021/04/17 11:48:12;;;;;;;3.87;2.90;;;13.60;54.70;;;;;;4343824;33;20219;-62
2021/04/17 11:50:39;;;;;;;6.57;3.13;;;13.30;56.80;;;;;;4344669;33;20183;-62
2021/04/17 11:53:06;;;;;;;7.13;2.93;;;13.40;58.70;;;;;;4345802;33;20145;-62
2021/04/17 11:55:32;;;;;;;9.17;2.90;;;13.60;58.40;;;;;;4345749;33;20157;-62
2021/04/17 11:57:59;;;;;;;6.00;2.40;;;13.40;58.30;;;;;;4344379;33;20218;-62
2021/04/17 12:00:26;;;;;;;8.53;2.87;;;13.50;59.30;;;;;;4331007;33;20637;-63
2021/04/17 12:02:52;;;;;;;5.50;2.60;;;13.80;57.80;;;;;;4340383;33;20183;-61
2021/04/17 12:05:18;;;;;;;7.63;2.90;;;13.70;57.10;;;;;;4345157;33;20192;-61
2021/04/17 12:07:45;;;;;;;6.40;3.27;;;13.60;58.00;;;;;;4344591;33;20144;-61
2021/04/17 12:10:13;;;;;;;7.87;2.90;;;13.60;59.50;;;;;;4341625;33;20247;-62
2021/04/17 12:12:39;;;;;;;7.50;2.73;;;14.20;56.70;;;;;;4336255;33;20290;-61
2021/04/17 12:15:08;;;;;;;7.00;2.67;;;14.30;57.00;;;;;;4343759;32;20217;-61
2021/04/17 12:17:34;;;;;;;8.10;3.00;;;14.20;57.60;;;;;;4332534;33;20200;-63
2021/04/17 12:20:00;;;;;;;5.63;3.10;;;14.10;57.80;;;;;;4343944;33;20236;-63
2021/04/17 12:22:27;;;;;;;8.63;3.40;;;14.50;56.50;;;;;;4341405;33;20543;-62
2021/04/17 12:24:53;;;;;;;7.30;2.90;;;14.80;55.90;;;;;;4342064;33;20158;-62
2021/04/17 12:27:20;;;;;;;6.33;2.97;;;14.50;54.40;;;;;;4338066;33;20223;-62
2021/04/17 12:29:47;;;;;;;8.87;3.40;;;14.20;55.90;;;;;;4341767;33;20224;-64
2021/04/17 12:32:15;;;;;;;9.23;3.50;;;13.80;58.20;;;;;;4343919;33;20458;-65
2021/04/17 12:34:41;;;;;;;8.47;3.87;;;13.20;61.40;;;;;;4344194;33;20164;-61
2021/04/17 12:37:07;;;;;;;8.43;3.60;;;13.20;61.20;;;;;;4343712;33;20169;-61
2021/04/17 12:39:34;;;;;;;7.20;2.50;;;13.70;60.00;;;;;;4340954;33;20239;-64
2021/04/17 12:42:00;;;;;;;8.03;2.70;;;13.60;58.90;;;;;;4335038;33;20165;-60
2021/04/17 12:44:27;;;;;;;6.20;3.20;;;14.00;58.30;;;;;;4342097;33;20172;-61
2021/04/17 12:46:53;;;;;;;6.27;2.90;;;14.30;56.80;;;;;;4343914;33;20160;-64
2021/04/17 12:49:21;;;;;;;6.50;3.30;;;14.40;55.20;;;;;;4350357;33;20574;-62
2021/04/17 12:51:47;;;;;;;8.03;3.00;;;14.40;55.20;;;;;;4344594;33;20158;-67
2021/04/17 12:54:13;;;;;;;8.00;3.60;;;14.20;56.90;;;;;;4345257;33;20177;-62
2021/04/17 12:56:40;;;;;;;5.60;3.00;;;14.10;56.90;;;;;;4345339;33;20183;-65
2021/04/17 12:59:06;;;;;;;8.33;3.37;;;13.90;57.80;;;;;;4332777;33;20228;-60